sensor_id;sensor_type;location;lat;lon;timestamp;pressure;altitude;pressure_sealevel;temperature;humidity
68456;BME280;55437;55.046;38.838;2024-01-25T00:00:16;99040.66;;;2.92;66.32
68456;BME280;55437;55.046;38.838;2024-01-25T00:02:42;99033.88;;;2.94;66.22
68456;BME280;55437;55.046;38.838;2024-01-25T00:05:08;99019.50;;;2.94;66.04
68456;BME280;55437;55.046;38.838;2024-01-25T00:07:35;99029.84;;;2.79;66.03
68456;BME280;55437;55.046;38.838;2024-01-25T00:10:10;99019.13;;;2.59;66.54
68456;BME280;55437;55.046;38.838;2024-01-25T00:12:36;99022.34;;;2.73;66.53
68456;BME280;55437;55.046;38.838;2024-01-25T00:15:01;99023.03;;;2.84;66.50
68456;BME280;55437;55.046;38.838;2024-01-25T00:17:34;99017.91;;;2.88;66.10
68456;BME280;55437;55.046;38.838;2024-01-25T00:20:00;99012.72;;;2.95;65.79
68456;BME280;55437;55.046;38.838;2024-01-25T00:22:26;99026.38;;;2.86;65.93
68456;BME280;55437;55.046;38.838;2024-01-25T00:24:52;99018.94;;;2.75;66.23
68456;BME280;55437;55.046;38.838;2024-01-25T00:27:36;99015.53;;;2.76;66.08
68456;BME280;55437;55.046;38.838;2024-01-25T00:30:03;99014.88;;;2.62;66.34
68456;BME280;55437;55.046;38.838;2024-01-25T00:32:33;99019.13;;;2.60;66.45
68456;BME280;55437;55.046;38.838;2024-01-25T00:34:59;99003.81;;;2.66;66.19
68456;BME280;55437;55.046;38.838;2024-01-25T00:37:25;99006.28;;;2.74;66.28
68456;BME280;55437;55.046;38.838;2024-01-25T00:39:51;99011.38;;;2.69;66.13
68456;BME280;55437;55.046;38.838;2024-01-25T00:42:21;99012.16;;;2.77;66.34
68456;BME280;55437;55.046;38.838;2024-01-25T00:44:47;99001.75;;;2.93;65.88
68456;BME280;55437;55.046;38.838;2024-01-25T00:47:14;98990.78;;;2.92;65.71
68456;BME280;55437;55.046;38.838;2024-01-25T00:49:40;98990.09;;;2.82;65.82
68456;BME280;55437;55.046;38.838;2024-01-25T00:52:06;98980.97;;;2.69;66.02
68456;BME280;55437;55.046;38.838;2024-01-25T00:54:32;98997.91;;;2.67;66.21
68456;BME280;55437;55.046;38.838;2024-01-25T00:56:58;98983.53;;;2.68;66.45
68456;BME280;55437;55.046;38.838;2024-01-25T00:59:25;98991.38;;;2.52;66.33
68456;BME280;55437;55.046;38.838;2024-01-25T01:01:52;98979.38;;;2.64;66.36
68456;BME280;55437;55.046;38.838;2024-01-25T01:04:20;98979.28;;;2.70;66.24
68456;BME280;55437;55.046;38.838;2024-01-25T01:06:46;98980.97;;;2.69;66.19
68456;BME280;55437;55.046;38.838;2024-01-25T01:09:13;98985.91;;;2.78;66.22
68456;BME280;55437;55.046;38.838;2024-01-25T01:11:39;98977.41;;;2.82;65.81
68456;BME280;55437;55.046;38.838;2024-01-25T01:14:05;98977.44;;;2.81;65.77
68456;BME280;55437;55.046;38.838;2024-01-25T01:16:31;98981.75;;;2.76;66.00
68456;BME280;55437;55.046;38.838;2024-01-25T01:18:59;98970.09;;;2.64;65.92
68456;BME280;55437;55.046;38.838;2024-01-25T01:21:33;98977.84;;;2.52;66.59
68456;BME280;55437;55.046;38.838;2024-01-25T01:23:59;98982.84;;;2.55;66.67
68456;BME280;55437;55.046;38.838;2024-01-25T01:26:25;98968.56;;;2.51;66.39
68456;BME280;55437;55.046;38.838;2024-01-25T01:28:51;98966.09;;;2.46;66.45
68456;BME280;55437;55.046;38.838;2024-01-25T01:31:17;98969.47;;;2.45;66.70
68456;BME280;55437;55.046;38.838;2024-01-25T01:33:43;98966.03;;;2.51;66.69
68456;BME280;55437;55.046;38.838;2024-01-25T01:36:09;98961.84;;;2.48;66.57
68456;BME280;55437;55.046;38.838;2024-01-25T01:38:35;98964.25;;;2.58;66.63
68456;BME280;55437;55.046;38.838;2024-01-25T01:41:00;98964.97;;;2.66;66.36
68456;BME280;55437;55.046;38.838;2024-01-25T01:43:26;98954.06;;;2.62;65.82
68456;BME280;55437;55.046;38.838;2024-01-25T01:45:55;98959.16;;;2.61;66.33
68456;BME280;55437;55.046;38.838;2024-01-25T01:48:23;98960.97;;;2.52;65.83
68456;BME280;55437;55.046;38.838;2024-01-25T01:50:50;98956.00;;;2.42;66.52
68456;BME280;55437;55.046;38.838;2024-01-25T01:53:17;98957.75;;;2.40;66.62
68456;BME280;55437;55.046;38.838;2024-01-25T01:55:43;98964.56;;;2.33;66.67
68456;BME280;55437;55.046;38.838;2024-01-25T01:58:09;98956.94;;;2.36;66.50
68456;BME280;55437;55.046;38.838;2024-01-25T02:00:37;98945.09;;;2.38;66.48
68456;BME280;55437;55.046;38.838;2024-01-25T02:03:03;98947.72;;;2.31;66.76
68456;BME280;55437;55.046;38.838;2024-01-25T02:05:29;98936.75;;;2.30;66.70
68456;BME280;55437;55.046;38.838;2024-01-25T02:07:55;98937.56;;;2.32;66.66
68456;BME280;55437;55.046;38.838;2024-01-25T02:10:21;98932.47;;;2.35;66.71
68456;BME280;55437;55.046;38.838;2024-01-25T02:12:47;98920.50;;;2.45;66.31
68456;BME280;55437;55.046;38.838;2024-01-25T02:15:12;98913.66;;;2.53;66.12
68456;BME280;55437;55.046;38.838;2024-01-25T02:17:39;98922.03;;;2.57;65.69
68456;BME280;55437;55.046;38.838;2024-01-25T02:20:06;98923.00;;;2.48;66.05
68456;BME280;55437;55.046;38.838;2024-01-25T02:22:32;98918.06;;;2.40;66.24
68456;BME280;55437;55.046;38.838;2024-01-25T02:24:58;98915.47;;;2.42;66.08
68456;BME280;55437;55.046;38.838;2024-01-25T02:27:24;98924.91;;;2.32;66.06
68456;BME280;55437;55.046;38.838;2024-01-25T02:29:50;98920.72;;;2.30;66.12
68456;BME280;55437;55.046;38.838;2024-01-25T02:32:16;98919.84;;;2.31;66.17
68456;BME280;55437;55.046;38.838;2024-01-25T02:34:41;98915.63;;;2.30;66.38
68456;BME280;55437;55.046;38.838;2024-01-25T02:37:07;98918.28;;;2.22;66.42
68456;BME280;55437;55.046;38.838;2024-01-25T02:39:33;98923.44;;;2.16;66.70
68456;BME280;55437;55.046;38.838;2024-01-25T02:41:59;98933.59;;;2.13;66.64
68456;BME280;55437;55.046;38.838;2024-01-25T02:44:25;98927.00;;;2.03;66.96
68456;BME280;55437;55.046;38.838;2024-01-25T02:46:51;98922.66;;;2.09;67.05
68456;BME280;55437;55.046;38.838;2024-01-25T02:49:18;98925.91;;;2.19;66.57
68456;BME280;55437;55.046;38.838;2024-01-25T02:51:49;98938.56;;;2.21;66.44
68456;BME280;55437;55.046;38.838;2024-01-25T02:54:16;98929.97;;;2.31;66.30
68456;BME280;55437;55.046;38.838;2024-01-25T02:56:42;98927.38;;;2.37;66.24
68456;BME280;55437;55.046;38.838;2024-01-25T02:59:08;98927.41;;;2.35;66.12
68456;BME280;55437;55.046;38.838;2024-01-25T03:01:41;98935.91;;;2.30;66.12
68456;BME280;55437;55.046;38.838;2024-01-25T03:04:08;98938.59;;;2.17;66.14
68456;BME280;55437;55.046;38.838;2024-01-25T03:06:34;98938.69;;;2.11;66.68
68456;BME280;55437;55.046;38.838;2024-01-25T03:09:00;98927.75;;;2.06;66.70
68456;BME280;55437;55.046;38.838;2024-01-25T03:11:26;98926.19;;;1.98;66.90
68456;BME280;55437;55.046;38.838;2024-01-25T03:13:52;98933.81;;;1.96;66.82
68456;BME280;55437;55.046;38.838;2024-01-25T03:16:18;98925.44;;;1.91;66.84
68456;BME280;55437;55.046;38.838;2024-01-25T03:18:43;98930.53;;;1.87;67.26
68456;BME280;55437;55.046;38.838;2024-01-25T03:21:09;98926.41;;;1.81;67.03
68456;BME280;55437;55.046;38.838;2024-01-25T03:23:35;98926.31;;;1.87;67.33
68456;BME280;55437;55.046;38.838;2024-01-25T03:26:02;98915.41;;;1.82;67.10
68456;BME280;55437;55.046;38.838;2024-01-25T03:28:28;98914.63;;;1.78;67.44
68456;BME280;55437;55.046;38.838;2024-01-25T03:30:53;98906.22;;;1.75;67.38
68456;BME280;55437;55.046;38.838;2024-01-25T03:33:20;98906.19;;;1.78;67.48
68456;BME280;55437;55.046;38.838;2024-01-25T03:35:46;98907.91;;;1.76;67.38
68456;BME280;55437;55.046;38.838;2024-01-25T03:38:12;98900.34;;;1.71;67.38
68456;BME280;55437;55.046;38.838;2024-01-25T03:40:39;98895.25;;;1.76;67.31
68456;BME280;55437;55.046;38.838;2024-01-25T03:43:05;98897.81;;;1.73;67.58
68456;BME280;55437;55.046;38.838;2024-01-25T03:45:31;98892.75;;;1.73;67.44
68456;BME280;55437;55.046;38.838;2024-01-25T03:47:58;98886.94;;;1.65;67.38
68456;BME280;55437;55.046;38.838;2024-01-25T03:50:25;98895.25;;;1.76;67.10
68456;BME280;55437;55.046;38.838;2024-01-25T03:52:51;98892.00;;;1.66;67.65
68456;BME280;55437;55.046;38.838;2024-01-25T03:55:17;98881.91;;;1.62;67.51
68456;BME280;55437;55.046;38.838;2024-01-25T03:57:44;98881.06;;;1.63;67.39
68456;BME280;55437;55.046;38.838;2024-01-25T04:00:11;98897.13;;;1.59;67.50
68456;BME280;55437;55.046;38.838;2024-01-25T04:02:39;98900.47;;;1.61;67.48
68456;BME280;55437;55.046;38.838;2024-01-25T04:05:05;98884.53;;;1.56;67.48
68456;BME280;55437;55.046;38.838;2024-01-25T04:07:31;98887.91;;;1.55;67.75
68456;BME280;55437;55.046;38.838;2024-01-25T04:09:57;98881.16;;;1.54;67.77
68456;BME280;55437;55.046;38.838;2024-01-25T04:12:23;98876.03;;;1.60;67.38
68456;BME280;55437;55.046;38.838;2024-01-25T04:14:50;98866.78;;;1.57;67.21
68456;BME280;55437;55.046;38.838;2024-01-25T04:17:16;98859.16;;;1.59;67.75
68456;BME280;55437;55.046;38.838;2024-01-25T04:19:43;98852.50;;;1.52;67.34
68456;BME280;55437;55.046;38.838;2024-01-25T04:22:09;98850.03;;;1.47;67.61
68456;BME280;55437;55.046;38.838;2024-01-25T04:24:37;98848.34;;;1.46;67.64
68456;BME280;55437;55.046;38.838;2024-01-25T04:27:03;98845.06;;;1.39;67.25
68456;BME280;55437;55.046;38.838;2024-01-25T04:29:28;98845.19;;;1.30;67.75
68456;BME280;55437;55.046;38.838;2024-01-25T04:31:54;98843.50;;;1.29;67.95
68456;BME280;55437;55.046;38.838;2024-01-25T04:34:20;98841.88;;;1.22;68.20
68456;BME280;55437;55.046;38.838;2024-01-25T04:36:46;98841.03;;;1.23;67.73
68456;BME280;55437;55.046;38.838;2024-01-25T04:39:12;98835.09;;;1.27;67.75
68456;BME280;55437;55.046;38.838;2024-01-25T04:41:38;98839.22;;;1.34;67.71
68456;BME280;55437;55.046;38.838;2024-01-25T04:44:04;98835.78;;;1.40;67.78
68456;BME280;55437;55.046;38.838;2024-01-25T04:46:30;98829.00;;;1.43;67.44
68456;BME280;55437;55.046;38.838;2024-01-25T04:49:20;98827.38;;;1.36;67.61
68456;BME280;55437;55.046;38.838;2024-01-25T04:51:47;98840.13;;;1.29;67.56
68456;BME280;55437;55.046;38.838;2024-01-25T04:54:13;98830.13;;;1.18;67.42
68456;BME280;55437;55.046;38.838;2024-01-25T04:56:42;98827.59;;;1.18;67.71
68456;BME280;55437;55.046;38.838;2024-01-25T04:59:08;98822.56;;;1.18;67.62
68456;BME280;55437;55.046;38.838;2024-01-25T05:01:34;98832.66;;;1.18;67.35
68456;BME280;55437;55.046;38.838;2024-01-25T05:04:04;98826.78;;;1.16;67.55
68456;BME280;55437;55.046;38.838;2024-01-25T05:06:30;98833.53;;;1.14;67.51
68456;BME280;55437;55.046;38.838;2024-01-25T05:08:57;98831.03;;;1.09;67.43
68456;BME280;55437;55.046;38.838;2024-01-25T05:11:22;98831.09;;;1.08;67.53
68456;BME280;55437;55.046;38.838;2024-01-25T05:13:49;98837.78;;;1.09;67.45
68456;BME280;55437;55.046;38.838;2024-01-25T05:16:14;98830.06;;;1.23;67.53
68456;BME280;55437;55.046;38.838;2024-01-25T05:18:40;98839.41;;;1.18;67.32
68456;BME280;55437;55.046;38.838;2024-01-25T05:21:07;98836.06;;;1.14;67.04
68456;BME280;55437;55.046;38.838;2024-01-25T05:23:33;98842.78;;;1.18;67.25
68456;BME280;55437;55.046;38.838;2024-01-25T05:26:01;98839.41;;;1.19;66.95
68456;BME280;55437;55.046;38.838;2024-01-25T05:28:27;98837.59;;;1.30;66.78
68456;BME280;55437;55.046;38.838;2024-01-25T05:30:53;98845.09;;;1.35;66.54
68456;BME280;55437;55.046;38.838;2024-01-25T05:33:19;98836.78;;;1.24;66.64
68456;BME280;55437;55.046;38.838;2024-01-25T05:35:45;98837.75;;;1.15;67.15
68456;BME280;55437;55.046;38.838;2024-01-25T05:38:11;98835.31;;;1.06;67.09
68456;BME280;55437;55.046;38.838;2024-01-25T05:40:37;98837.75;;;1.12;66.94
68456;BME280;55437;55.046;38.838;2024-01-25T05:43:03;98839.47;;;1.10;67.06
68456;BME280;55437;55.046;38.838;2024-01-25T05:45:29;98837.00;;;1.07;66.97
68456;BME280;55437;55.046;38.838;2024-01-25T05:47:55;98839.53;;;1.07;67.08
68456;BME280;55437;55.046;38.838;2024-01-25T05:50:22;98841.34;;;0.93;67.35
68456;BME280;55437;55.046;38.838;2024-01-25T05:52:48;98834.53;;;0.98;67.69
68456;BME280;55437;55.046;38.838;2024-01-25T05:55:14;98839.47;;;1.10;67.22
68456;BME280;55437;55.046;38.838;2024-01-25T05:57:43;98832.78;;;1.06;67.18
68456;BME280;55437;55.046;38.838;2024-01-25T06:00:15;98838.75;;;0.99;67.47
68456;BME280;55437;55.046;38.838;2024-01-25T06:02:41;98832.06;;;0.93;67.40
68456;BME280;55437;55.046;38.838;2024-01-25T06:05:09;98839.59;;;0.98;67.48
68456;BME280;55437;55.046;38.838;2024-01-25T06:07:35;98835.34;;;1.00;67.64
68456;BME280;55437;55.046;38.838;2024-01-25T06:10:01;98841.16;;;1.09;67.68
68456;BME280;55437;55.046;38.838;2024-01-25T06:12:28;98836.13;;;1.08;67.63
68456;BME280;55437;55.046;38.838;2024-01-25T06:14:54;98841.97;;;1.15;67.25
68456;BME280;55437;55.046;38.838;2024-01-25T06:17:21;98842.69;;;1.24;67.17
68456;BME280;55437;55.046;38.838;2024-01-25T06:19:46;98835.91;;;1.29;67.08
68456;BME280;55437;55.046;38.838;2024-01-25T06:22:13;98844.34;;;1.28;66.53
68456;BME280;55437;55.046;38.838;2024-01-25T06:24:40;98835.94;;;1.25;66.72
68456;BME280;55437;55.046;38.838;2024-01-25T06:27:06;98837.72;;;1.18;67.30
68456;BME280;55437;55.046;38.838;2024-01-25T06:29:32;98840.19;;;1.23;67.08
68456;BME280;55437;55.046;38.838;2024-01-25T06:31:59;98838.53;;;1.20;67.24
68456;BME280;55437;55.046;38.838;2024-01-25T06:34:24;98840.22;;;1.20;67.52
68456;BME280;55437;55.046;38.838;2024-01-25T06:36:52;98837.63;;;1.26;67.31
68456;BME280;55437;55.046;38.838;2024-01-25T06:39:18;98830.03;;;1.27;67.13
68456;BME280;55437;55.046;38.838;2024-01-25T06:41:44;98834.16;;;1.34;66.88
68456;BME280;55437;55.046;38.838;2024-01-25T06:44:10;98834.13;;;1.37;66.86
68456;BME280;55437;55.046;38.838;2024-01-25T06:46:37;98836.03;;;1.19;67.52
68456;BME280;55437;55.046;38.838;2024-01-25T06:49:02;98825.03;;;1.21;67.71
68456;BME280;55437;55.046;38.838;2024-01-25T06:51:28;98824.16;;;1.25;67.46
68456;BME280;55437;55.046;38.838;2024-01-25T06:53:55;98832.47;;;1.33;67.44
68456;BME280;55437;55.046;38.838;2024-01-25T06:56:20;98829.94;;;1.33;67.35
68456;BME280;55437;55.046;38.838;2024-01-25T06:58:47;98842.56;;;1.35;67.12
68456;BME280;55437;55.046;38.838;2024-01-25T07:01:13;98830.75;;;1.37;67.04
68456;BME280;55437;55.046;38.838;2024-01-25T07:03:39;98833.28;;;1.38;67.15
68456;BME280;55437;55.046;38.838;2024-01-25T07:06:06;98835.88;;;1.32;66.95
68456;BME280;55437;55.046;38.838;2024-01-25T07:08:36;98843.56;;;1.22;67.59
68456;BME280;55437;55.046;38.838;2024-01-25T07:11:03;98838.59;;;1.13;67.60
68456;BME280;55437;55.046;38.838;2024-01-25T07:13:29;98845.34;;;1.12;67.77
68456;BME280;55437;55.046;38.838;2024-01-25T07:15:55;98840.25;;;1.18;67.42
68456;BME280;55437;55.046;38.838;2024-01-25T07:18:20;98841.13;;;1.14;67.80
68456;BME280;55437;55.046;38.838;2024-01-25T07:20:46;98836.03;;;1.17;67.66
68456;BME280;55437;55.046;38.838;2024-01-25T07:23:12;98837.66;;;1.23;67.48
68456;BME280;55437;55.046;38.838;2024-01-25T07:25:38;98837.72;;;1.17;67.33
68456;BME280;55437;55.046;38.838;2024-01-25T07:28:04;98844.41;;;1.22;67.48
68456;BME280;55437;55.046;38.838;2024-01-25T07:30:30;98842.66;;;1.30;67.61
68456;BME280;55437;55.046;38.838;2024-01-25T07:33:14;98842.56;;;1.36;67.13
68456;BME280;55437;55.046;38.838;2024-01-25T07:35:40;98845.19;;;1.30;67.10
68456;BME280;55437;55.046;38.838;2024-01-25T07:38:29;98848.56;;;1.29;67.02
68456;BME280;55437;55.046;38.838;2024-01-25T07:40:55;98851.09;;;1.29;67.21
68456;BME280;55437;55.046;38.838;2024-01-25T07:43:21;98852.03;;;1.21;67.25
68456;BME280;55437;55.046;38.838;2024-01-25T07:45:47;98841.03;;;1.22;67.50
68456;BME280;55437;55.046;38.838;2024-01-25T07:48:14;98849.44;;;1.24;67.58
68456;BME280;55437;55.046;38.838;2024-01-25T07:50:40;98840.03;;;1.36;67.25
68456;BME280;55437;55.046;38.838;2024-01-25T07:53:06;98836.53;;;1.47;66.73
68456;BME280;55437;55.046;38.838;2024-01-25T07:55:57;98837.31;;;1.53;66.49
68456;BME280;55437;55.046;38.838;2024-01-25T07:58:23;98833.97;;;1.50;66.24
68456;BME280;55437;55.046;38.838;2024-01-25T08:00:49;98834.06;;;1.43;66.59
68456;BME280;55437;55.046;38.838;2024-01-25T08:03:15;98839.97;;;1.44;66.57
68456;BME280;55437;55.046;38.838;2024-01-25T08:05:42;98834.81;;;1.50;66.45
68456;BME280;55437;55.046;38.838;2024-01-25T08:08:09;98835.50;;;1.63;66.11
68456;BME280;55437;55.046;38.838;2024-01-25T08:10:36;98832.84;;;1.75;65.53
68456;BME280;55437;55.046;38.838;2024-01-25T08:13:02;98837.88;;;1.76;65.36
68456;BME280;55437;55.046;38.838;2024-01-25T08:15:27;98825.19;;;1.81;65.07
68456;BME280;55437;55.046;38.838;2024-01-25T08:17:53;98838.03;;;1.66;65.18
68456;BME280;55437;55.046;38.838;2024-01-25T08:20:20;98832.97;;;1.64;65.00
68456;BME280;55437;55.046;38.838;2024-01-25T08:22:46;98831.13;;;1.77;64.98
68456;BME280;55437;55.046;38.838;2024-01-25T08:25:12;98831.84;;;1.85;64.90
68456;BME280;55437;55.046;38.838;2024-01-25T08:27:40;98825.97;;;1.81;64.58
68456;BME280;55437;55.046;38.838;2024-01-25T08:30:06;98823.41;;;1.88;64.52
68456;BME280;55437;55.046;38.838;2024-01-25T08:32:50;98830.09;;;1.93;64.33
68456;BME280;55437;55.046;38.838;2024-01-25T08:35:17;98831.78;;;1.91;64.34
68456;BME280;55437;55.046;38.838;2024-01-25T08:37:43;98825.81;;;1.95;64.10
68456;BME280;55437;55.046;38.838;2024-01-25T08:40:09;98811.44;;;1.97;63.79
68456;BME280;55437;55.046;38.838;2024-01-25T08:42:35;98818.13;;;2.04;64.07
68456;BME280;55437;55.046;38.838;2024-01-25T08:45:02;98819.97;;;1.93;63.76
68456;BME280;55437;55.046;38.838;2024-01-25T08:47:30;98819.13;;;1.93;63.93
68456;BME280;55437;55.046;38.838;2024-01-25T08:49:57;98826.75;;;1.90;64.07
68456;BME280;55437;55.046;38.838;2024-01-25T08:52:23;98821.72;;;1.85;64.09
68456;BME280;55437;55.046;38.838;2024-01-25T08:54:52;98828.44;;;1.89;64.18
68456;BME280;55437;55.046;38.838;2024-01-25T08:57:18;98820.88;;;1.88;64.26
68456;BME280;55437;55.046;38.838;2024-01-25T08:59:43;98826.75;;;1.90;64.00
68456;BME280;55437;55.046;38.838;2024-01-25T09:02:09;98821.72;;;1.85;63.99
68456;BME280;55437;55.046;38.838;2024-01-25T09:04:35;98809.06;;;1.87;64.15
68456;BME280;55437;55.046;38.838;2024-01-25T09:07:03;98813.31;;;1.83;63.96
68456;BME280;55437;55.046;38.838;2024-01-25T09:09:29;98809.03;;;1.90;63.82
68456;BME280;55437;55.046;38.838;2024-01-25T09:11:55;98798.78;;;1.99;63.59
68456;BME280;55437;55.046;38.838;2024-01-25T09:14:21;98812.22;;;2.04;63.27
68456;BME280;55437;55.046;38.838;2024-01-25T09:16:48;98812.28;;;1.98;63.46
68456;BME280;55437;55.046;38.838;2024-01-25T09:19:19;98807.91;;;2.09;63.60
68456;BME280;55437;55.046;38.838;2024-01-25T09:21:45;98807.72;;;2.21;63.23
68456;BME280;55437;55.046;38.838;2024-01-25T09:24:11;98806.16;;;2.12;63.10
68456;BME280;55437;55.046;38.838;2024-01-25T09:26:38;98806.16;;;2.12;63.10
68456;BME280;55437;55.046;38.838;2024-01-25T09:29:03;98806.88;;;2.22;63.09
68456;BME280;55437;55.046;38.838;2024-01-25T09:31:30;98805.94;;;2.28;62.77
68456;BME280;55437;55.046;38.838;2024-01-25T09:33:56;98798.59;;;2.11;62.57
68456;BME280;55437;55.046;38.838;2024-01-25T09:36:22;98791.00;;;2.09;63.00
68456;BME280;55437;55.046;38.838;2024-01-25T09:38:47;98795.16;;;2.16;63.08
68456;BME280;55437;55.046;38.838;2024-01-25T09:41:14;98798.50;;;2.17;62.53
68456;BME280;55437;55.046;38.838;2024-01-25T09:43:41;98795.09;;;2.18;62.46
68456;BME280;55437;55.046;38.838;2024-01-25T09:46:07;98790.75;;;2.28;62.12
68456;BME280;55437;55.046;38.838;2024-01-25T09:48:33;98800.97;;;2.20;62.34
68456;BME280;55437;55.046;38.838;2024-01-25T09:50:59;98792.56;;;2.18;62.43
68456;BME280;55437;55.046;38.838;2024-01-25T09:53:25;98795.06;;;2.20;62.49
68456;BME280;55437;55.046;38.838;2024-01-25T09:56:00;98786.41;;;2.34;62.43
68456;BME280;55437;55.046;38.838;2024-01-25T09:58:37;98790.69;;;2.31;62.11
68456;BME280;55437;55.046;38.838;2024-01-25T10:01:05;98793.38;;;2.22;62.12
68456;BME280;55437;55.046;38.838;2024-01-25T10:03:31;98798.47;;;2.18;62.05
68456;BME280;55437;55.046;38.838;2024-01-25T10:05:56;98800.91;;;2.26;62.23
68456;BME280;55437;55.046;38.838;2024-01-25T10:08:22;98800.13;;;2.21;62.24
68456;BME280;55437;55.046;38.838;2024-01-25T10:10:50;98793.38;;;2.20;62.41
68456;BME280;55437;55.046;38.838;2024-01-25T10:13:19;98793.38;;;2.22;62.32
68456;BME280;55437;55.046;38.838;2024-01-25T10:15:46;98793.38;;;2.22;62.21
68456;BME280;55437;55.046;38.838;2024-01-25T10:18:16;98791.66;;;2.22;62.16
68456;BME280;55437;55.046;38.838;2024-01-25T10:20:42;98804.44;;;2.16;62.09
68456;BME280;55437;55.046;38.838;2024-01-25T10:23:09;98797.84;;;2.04;62.60
68456;BME280;55437;55.046;38.838;2024-01-25T10:25:35;98796.94;;;2.07;62.69
68456;BME280;55437;55.046;38.838;2024-01-25T10:28:06;98795.31;;;2.04;62.44
68456;BME280;55437;55.046;38.838;2024-01-25T10:30:33;98800.44;;;2.00;62.74
68456;BME280;55437;55.046;38.838;2024-01-25T10:33:04;98788.69;;;1.96;63.05
68456;BME280;55437;55.046;38.838;2024-01-25T10:35:34;98792.88;;;1.97;63.07
68456;BME280;55437;55.046;38.838;2024-01-25T10:38:02;98791.31;;;1.88;63.49
68456;BME280;55437;55.046;38.838;2024-01-25T10:40:28;98782.94;;;1.85;63.31
68456;BME280;55437;55.046;38.838;2024-01-25T10:42:54;98780.41;;;1.85;63.35
68456;BME280;55437;55.046;38.838;2024-01-25T10:45:24;98782.19;;;1.79;63.30
68456;BME280;55437;55.046;38.838;2024-01-25T10:48:14;98780.38;;;1.86;63.23
68456;BME280;55437;55.046;38.838;2024-01-25T10:50:40;98776.94;;;1.92;63.33
68456;BME280;55437;55.046;38.838;2024-01-25T10:53:07;98785.22;;;2.01;62.99
68456;BME280;55437;55.046;38.838;2024-01-25T10:55:34;98775.13;;;2.00;62.97
68456;BME280;55437;55.046;38.838;2024-01-25T10:58:00;98783.50;;;2.05;63.21
68456;BME280;55437;55.046;38.838;2024-01-25T11:00:26;98783.50;;;2.05;62.89
68456;BME280;55437;55.046;38.838;2024-01-25T11:02:52;98774.25;;;2.02;63.27
68456;BME280;55437;55.046;38.838;2024-01-25T11:05:18;98776.13;;;1.90;63.40
68456;BME280;55437;55.046;38.838;2024-01-25T11:07:49;98783.69;;;1.91;63.49
68456;BME280;55437;55.046;38.838;2024-01-25T11:10:18;98775.44;;;1.78;63.87
68456;BME280;55437;55.046;38.838;2024-01-25T11:12:59;98771.13;;;1.85;63.67
68456;BME280;55437;55.046;38.838;2024-01-25T11:15:32;98770.97;;;1.94;63.75
68456;BME280;55437;55.046;38.838;2024-01-25T11:17:58;98775.19;;;1.94;63.85
68456;BME280;55437;55.046;38.838;2024-01-25T11:20:26;98784.44;;;1.96;63.82
68456;BME280;55437;55.046;38.838;2024-01-25T11:23:03;98780.34;;;1.91;63.90
68456;BME280;55437;55.046;38.838;2024-01-25T11:25:32;98783.63;;;1.94;63.58
68456;BME280;55437;55.046;38.838;2024-01-25T11:27:59;98781.88;;;1.99;63.90
68456;BME280;55437;55.046;38.838;2024-01-25T11:30:30;98784.28;;;2.07;63.68
68456;BME280;55437;55.046;38.838;2024-01-25T11:32:56;98783.34;;;2.14;63.51
68456;BME280;55437;55.046;38.838;2024-01-25T11:35:23;98780.94;;;2.06;63.61
68456;BME280;55437;55.046;38.838;2024-01-25T11:37:50;98782.56;;;2.10;63.90
68456;BME280;55437;55.046;38.838;2024-01-25T11:40:19;98784.38;;;2.04;64.02
68456;BME280;55437;55.046;38.838;2024-01-25T11:42:49;98787.56;;;2.15;63.69
68456;BME280;55437;55.046;38.838;2024-01-25T11:45:17;98785.19;;;2.04;64.22
68456;BME280;55437;55.046;38.838;2024-01-25T11:47:44;98789.47;;;2.01;64.15
68456;BME280;55437;55.046;38.838;2024-01-25T11:50:12;98790.34;;;1.98;64.49
68456;BME280;55437;55.046;38.838;2024-01-25T11:52:38;98788.63;;;1.99;64.28
68456;BME280;55437;55.046;38.838;2024-01-25T11:55:09;98792.00;;;1.99;64.51
68456;BME280;55437;55.046;38.838;2024-01-25T11:57:39;98782.75;;;1.98;64.15
68456;BME280;55437;55.046;38.838;2024-01-25T12:00:08;98780.34;;;1.91;64.50
68456;BME280;55437;55.046;38.838;2024-01-25T12:02:39;98776.22;;;1.82;64.76
68456;BME280;55437;55.046;38.838;2024-01-25T12:05:06;98788.09;;;1.77;64.91
68456;BME280;55437;55.046;38.838;2024-01-25T12:07:33;98782.25;;;1.72;65.19
68456;BME280;55437;55.046;38.838;2024-01-25T12:10:07;98782.19;;;1.78;65.00
68456;BME280;55437;55.046;38.838;2024-01-25T12:12:35;98783.09;;;1.74;65.41
68456;BME280;55437;55.046;38.838;2024-01-25T12:15:04;98789.84;;;1.73;65.41
68456;BME280;55437;55.046;38.838;2024-01-25T12:17:32;98775.47;;;1.75;65.59
68456;BME280;55437;55.046;38.838;2024-01-25T12:19:59;98781.38;;;1.76;65.48
68456;BME280;55437;55.046;38.838;2024-01-25T12:22:29;98779.69;;;1.76;65.68
68456;BME280;55437;55.046;38.838;2024-01-25T12:24:56;98772.09;;;1.76;65.59
68456;BME280;55437;55.046;38.838;2024-01-25T12:27:24;98781.41;;;1.73;65.57
68456;BME280;55437;55.046;38.838;2024-01-25T12:29:51;98780.66;;;1.68;65.99
68456;BME280;55437;55.046;38.838;2024-01-25T12:32:22;98785.75;;;1.63;65.77
68456;BME280;55437;55.046;38.838;2024-01-25T12:34:59;98778.16;;;1.65;66.27
68456;BME280;55437;55.046;38.838;2024-01-25T12:37:30;98776.44;;;1.67;65.98
68456;BME280;55437;55.046;38.838;2024-01-25T12:39:56;98788.94;;;1.77;66.02
68456;BME280;55437;55.046;38.838;2024-01-25T12:42:23;98787.25;;;1.78;65.94
68456;BME280;55437;55.046;38.838;2024-01-25T12:44:53;98791.53;;;1.73;65.77
68456;BME280;55437;55.046;38.838;2024-01-25T12:47:21;98788.41;;;1.56;65.80
68456;BME280;55437;55.046;38.838;2024-01-25T12:49:48;98801.13;;;1.48;66.45
68456;BME280;55437;55.046;38.838;2024-01-25T12:52:15;98798.69;;;1.40;66.73
68456;BME280;55437;55.046;38.838;2024-01-25T12:54:41;98798.63;;;1.45;66.65
68456;BME280;55437;55.046;38.838;2024-01-25T12:57:08;98797.84;;;1.40;66.40
68456;BME280;55437;55.046;38.838;2024-01-25T12:59:35;98791.22;;;1.31;66.67